Time;durP1;ratioP1;P1;durP2;ratioP2;P2;SDS_P1;SDS_P2;PMS_P1;PMS_P2;Temp;Humidity;BMP_temperature;BMP_pressure;BME280_temperature;BME280_humidity;BME280_pressure;Samples;Min_cycle;Max_cycle;Signal;HPM_P1;HPM_P2
2022/06/28 00:01:34;;;;;;;1.00;0.50;;;16.60;99.90;;;;;;4328487;28;10000500;-71
2022/06/28 00:03:59;;;;;;;0.82;0.50;;;16.60;99.90;;;;;;5018719;28;20025;-70
2022/06/28 00:06:25;;;;;;;0.55;0.55;;;16.50;99.90;;;;;;5015956;28;20037;-70
2022/06/28 00:08:51;;;;;;;0.55;0.50;;;16.50;99.90;;;;;;5019043;28;20025;-70
2022/06/28 00:11:16;;;;;;;0.57;0.57;;;16.50;99.90;;;;;;5020253;28;20026;-70
2022/06/28 00:13:42;;;;;;;0.57;0.57;;;16.40;99.90;;;;;;5022442;28;20083;-70
2022/06/28 00:16:08;;;;;;;0.60;0.60;;;16.40;99.90;;;;;;5017299;28;20493;-70
2022/06/28 00:18:36;;;;;;;1.60;0.70;;;16.40;99.90;;;;;;5022994;28;20033;-70
2022/06/28 00:21:03;;;;;;;0.82;0.60;;;16.40;99.90;;;;;;5012647;28;20029;-70
2022/06/28 00:23:30;;;;;;;0.93;0.80;;;16.40;99.90;;;;;;5017339;28;20032;-70
2022/06/28 00:25:56;;;;;;;1.40;0.80;;;16.30;99.90;;;;;;5016657;28;20048;-70
2022/06/28 00:28:22;;;;;;;1.00;0.73;;;16.20;99.90;;;;;;5019596;28;20033;-70
2022/06/28 00:30:47;;;;;;;0.82;0.65;;;16.20;99.90;;;;;;5025813;28;20687;-70
2022/06/28 00:33:13;;;;;;;1.58;0.82;;;16.10;99.90;;;;;;5018578;28;20053;-70
2022/06/28 00:35:39;;;;;;;1.13;1.00;;;16.10;99.90;;;;;;5020220;28;20084;-70
2022/06/28 00:38:05;;;;;;;1.50;1.23;;;16.10;99.90;;;;;;5023189;28;20109;-70
2022/06/28 00:40:46;;;;;;;1.52;1.00;;;16.10;99.90;;;;;;5025993;28;20489;-70
2022/06/28 00:43:13;;;;;;;1.20;1.05;;;16.00;99.90;;;;;;5014790;28;20084;-70
2022/06/28 00:45:44;;;;;;;1.85;1.23;;;15.90;99.90;;;;;;5024434;28;20703;-70
2022/06/28 00:48:12;;;;;;;2.00;1.33;;;15.90;99.90;;;;;;5021114;28;20525;-70
2022/06/28 00:50:39;;;;;;;1.90;1.30;;;15.90;99.90;;;;;;5018583;28;20280;-70
2022/06/28 00:53:16;;;;;;;2.35;1.40;;;15.80;99.90;;;;;;5025015;28;20119;-70
2022/06/28 00:55:43;;;;;;;1.40;1.30;;;15.80;99.90;;;;;;5019800;28;20043;-70
2022/06/28 00:58:09;;;;;;;1.95;1.70;;;15.80;99.90;;;;;;5019055;28;20037;-70
2022/06/28 01:00:41;;;;;;;2.55;1.30;;;15.80;99.90;;;;;;5023699;28;20030;-70
2022/06/28 01:03:08;;;;;;;2.97;1.63;;;15.90;99.90;;;;;;5018660;28;20018;-70
2022/06/28 01:05:36;;;;;;;1.40;1.00;;;16.00;99.90;;;;;;5025010;28;20030;-70
2022/06/28 01:08:04;;;;;;;2.40;1.10;;;16.00;99.90;;;;;;5018709;28;20043;-70
2022/06/28 01:10:29;;;;;;;1.05;0.90;;;15.90;99.90;;;;;;5022112;28;20734;-70
2022/06/28 01:12:55;;;;;;;3.22;1.00;;;15.80;99.90;;;;;;5026986;28;20022;-70
2022/06/28 01:15:21;;;;;;;1.63;0.95;;;15.70;99.90;;;;;;5023099;28;20392;-71
2022/06/28 01:17:46;;;;;;;1.65;1.00;;;15.60;99.90;;;;;;5022222;28;20044;-70
2022/06/28 01:20:12;;;;;;;1.30;1.15;;;15.50;99.90;;;;;;5011407;28;20017;-70
2022/06/28 01:22:42;;;;;;;1.85;1.20;;;15.50;99.90;;;;;;5016803;28;20022;-71
2022/06/28 01:25:08;;;;;;;1.35;1.05;;;15.40;99.90;;;;;;5019475;28;20116;-71
2022/06/28 01:27:35;;;;;;;1.42;1.00;;;15.40;99.90;;;;;;5016418;28;20080;-70
2022/06/28 01:30:01;;;;;;;2.13;1.20;;;;;;;;;;5019084;28;20037;-70
2022/06/28 01:32:28;;;;;;;1.55;1.00;;;15.20;99.90;;;;;;5017767;28;20044;-70
2022/06/28 01:34:54;;;;;;;3.00;1.50;;;15.20;99.90;;;;;;5020243;28;20312;-70
2022/06/28 01:37:19;;;;;;;1.40;1.13;;;15.20;99.90;;;;;;5026648;28;20060;-70
2022/06/28 01:39:45;;;;;;;2.00;1.30;;;15.10;99.90;;;;;;5022666;28;20029;-70
2022/06/28 01:42:10;;;;;;;1.33;1.20;;;15.00;99.90;;;;;;5022222;28;20044;-70
2022/06/28 01:44:37;;;;;;;2.03;1.33;;;14.90;99.90;;;;;;5024742;28;20032;-70
2022/06/28 01:47:07;;;;;;;2.35;1.40;;;14.90;99.90;;;;;;5022561;28;20038;-70
2022/06/28 01:49:33;;;;;;;2.17;1.25;;;14.90;99.90;;;;;;5022702;28;20472;-70
2022/06/28 01:51:59;;;;;;;1.50;1.40;;;14.90;99.90;;;;;;5021279;28;20017;-71
2022/06/28 01:54:25;;;;;;;1.63;1.27;;;14.90;99.90;;;;;;5022196;28;20032;-70
2022/06/28 01:56:51;;;;;;;1.80;1.33;;;14.90;99.90;;;;;;5019754;28;20033;-70
2022/06/28 01:59:17;;;;;;;1.45;1.23;;;15.00;99.90;;;;;;5022039;28;20032;-70
2022/06/28 02:01:43;;;;;;;1.30;1.20;;;14.90;99.90;;;;;;5022142;28;20030;-70
2022/06/28 02:04:20;;;;;;;1.67;1.40;;;14.80;99.90;;;;;;5018076;28;20036;-70
2022/06/28 02:06:46;;;;;;;1.90;1.40;;;14.70;99.90;;;;;;5021701;28;20029;-70
2022/06/28 02:09:12;;;;;;;2.22;1.30;;;14.70;99.90;;;;;;5018020;28;20179;-71
2022/06/28 02:11:37;;;;;;;1.45;1.33;;;14.70;99.90;;;;;;5021201;28;20574;-71
2022/06/28 02:14:03;;;;;;;2.60;1.30;;;14.60;99.90;;;;;;5016429;28;20037;-71
2022/06/28 02:16:29;;;;;;;2.78;1.42;;;14.60;99.90;;;;;;5016429;28;20079;-71
2022/06/28 02:18:54;;;;;;;3.15;1.50;;;14.60;99.90;;;;;;5025185;28;20025;-70
2022/06/28 02:21:20;;;;;;;1.75;1.50;;;14.50;99.90;;;;;;5022425;28;20106;-71
2022/06/28 02:23:45;;;;;;;2.15;1.63;;;14.50;99.90;;;;;;5020882;28;20030;-71
2022/06/28 02:26:13;;;;;;;2.08;1.83;;;14.60;99.90;;;;;;5017995;28;20107;-71
2022/06/28 02:28:39;;;;;;;1.58;1.38;;;14.50;99.90;;;;;;5019898;28;20029;-71
2022/06/28 02:31:13;;;;;;;1.98;1.38;;;14.50;99.90;;;;;;5020703;28;20029;-71
2022/06/28 02:33:40;;;;;;;2.38;1.60;;;14.50;99.90;;;;;;5019406;28;20048;-71
2022/06/28 02:41:34;;;;;;;4.20;2.00;;;14.50;99.90;;;;;;5020017;28;20068;-71
2022/06/28 02:44:00;;;;;;;1.65;1.42;;;14.40;99.90;;;;;;5021523;28;20053;-71
2022/06/28 02:46:26;;;;;;;4.00;1.85;;;14.30;99.90;;;;;;5024514;28;20029;-71
2022/06/28 02:48:51;;;;;;;1.92;1.75;;;14.20;99.90;;;;;;5021084;28;20035;-70
2022/06/28 02:51:17;;;;;;;2.90;1.88;;;14.10;99.90;;;;;;5014888;28;20040;-70
2022/06/28 02:53:42;;;;;;;3.88;2.08;;;14.10;99.90;;;;;;5019858;28;20450;-70
2022/06/28 02:56:08;;;;;;;3.65;2.40;;;14.00;99.90;;;;;;5015122;28;20030;-70
2022/06/28 02:58:34;;;;;;;4.00;2.50;;;14.00;99.90;;;;;;5010041;28;20030;-70
2022/06/28 03:00:59;;;;;;;2.78;2.47;;;14.00;99.90;;;;;;5018138;28;20332;-70
2022/06/28 03:03:25;;;;;;;4.28;2.60;;;13.90;99.90;;;;;;5024221;28;20028;-70
2022/06/28 03:05:51;;;;;;;3.22;2.80;;;13.90;99.90;;;;;;5014934;28;20042;-70
2022/06/28 03:08:16;;;;;;;3.38;2.72;;;13.90;99.90;;;;;;5012400;28;20055;-70
2022/06/28 03:10:42;;;;;;;3.83;2.70;;;13.90;99.90;;;;;;5013042;28;20025;-70
2022/06/28 03:13:08;;;;;;;4.22;2.90;;;13.90;99.90;;;;;;5026816;28;20026;-70
2022/06/28 03:15:34;;;;;;;3.78;3.30;;;13.90;99.90;;;;;;5022375;28;20056;-70
2022/06/28 03:18:00;;;;;;;4.32;3.20;;;13.90;99.90;;;;;;5022559;28;20037;-71
2022/06/28 03:20:28;;;;;;;4.45;3.10;;;14.00;99.90;;;;;;5023015;28;20496;-71
2022/06/28 03:22:54;;;;;;;3.00;2.65;;;14.00;99.90;;;;;;5024389;28;20029;-70
2022/06/28 03:25:20;;;;;;;3.55;3.15;;;13.90;99.90;;;;;;5020894;28;20022;-70
2022/06/28 03:27:46;;;;;;;4.72;2.88;;;13.90;99.90;;;;;;5018381;28;20026;-70
2022/06/28 03:30:12;;;;;;;3.15;2.83;;;13.90;99.90;;;;;;5021664;28;20492;-71
2022/06/28 03:32:38;;;;;;;3.90;2.83;;;13.80;99.90;;;;;;5015066;28;20022;-71
2022/06/28 03:35:04;;;;;;;3.35;2.65;;;13.80;99.90;;;;;;5019871;28;20525;-71
2022/06/28 03:37:29;;;;;;;3.53;2.92;;;13.80;99.90;;;;;;5018667;28;20116;-71
2022/06/28 03:39:55;;;;;;;3.05;2.50;;;13.80;99.90;;;;;;5018878;28;20842;-70
2022/06/28 03:42:21;;;;;;;2.80;2.50;;;13.90;99.90;;;;;;5022145;28;20087;-70
2022/06/28 03:44:46;;;;;;;4.03;2.90;;;13.90;99.90;;;;;;5017631;28;20026;-70
2022/06/28 03:47:12;;;;;;;2.47;2.28;;;13.90;99.90;;;;;;5022133;28;20048;-71
2022/06/28 03:49:37;;;;;;;2.53;2.28;;;13.90;99.90;;;;;;5018974;28;20083;-71
2022/06/28 03:52:03;;;;;;;2.85;2.60;;;13.90;99.90;;;;;;5018220;28;20025;-71
2022/06/28 03:54:29;;;;;;;4.47;2.88;;;14.00;99.90;;;;;;5019282;28;20076;-71
2022/06/28 03:56:55;;;;;;;5.22;2.95;;;14.10;99.90;;;;;;5013088;28;20386;-70
2022/06/28 03:59:20;;;;;;;3.42;2.92;;;14.10;99.90;;;;;;5022689;28;20053;-70
2022/06/28 04:01:46;;;;;;;3.92;3.03;;;14.20;99.90;;;;;;5015631;28;20034;-70
2022/06/28 04:04:11;;;;;;;4.47;2.85;;;14.20;99.90;;;;;;5013108;28;20042;-70
2022/06/28 04:06:37;;;;;;;3.97;3.20;;;14.20;99.90;;;;;;5017808;28;20056;-70
2022/06/28 04:09:02;;;;;;;2.67;2.45;;;14.30;99.90;;;;;;5018442;28;20091;-70
2022/06/28 04:11:28;;;;;;;4.40;2.78;;;14.30;99.90;;;;;;5024415;28;20033;-70
2022/06/28 04:13:54;;;;;;;4.32;2.80;;;14.40;99.90;;;;;;5019469;28;20036;-70
2022/06/28 04:16:21;;;;;;;4.47;2.75;;;15.10;99.90;;;;;;5016131;28;20567;-70
2022/06/28 04:18:47;;;;;;;3.45;2.60;;;16.90;99.90;;;;;;5026871;28;20022;-70
2022/06/28 04:21:15;;;;;;;3.47;2.58;;;19.10;99.90;;;;;;5022979;28;20129;-70
2022/06/28 04:23:41;;;;;;;4.95;3.08;;;20.80;99.90;;;;;;5021696;28;20150;-70
2022/06/28 04:26:07;;;;;;;4.10;2.67;;;21.90;99.90;;;;;;5016174;28;20392;-70
2022/06/28 04:28:33;;;;;;;3.50;2.50;;;22.20;98.30;;;;;;5025143;28;20029;-70
2022/06/28 04:31:00;;;;;;;3.13;2.47;;;21.80;97.80;;;;;;5016434;28;20044;-71
2022/06/28 04:33:26;;;;;;;3.33;2.50;;;20.90;98.60;;;;;;5025362;28;20525;-70
2022/06/28 04:35:52;;;;;;;3.92;2.70;;;20.00;99.90;;;;;;5022480;28;20107;-70
2022/06/28 04:38:17;;;;;;;3.53;2.60;;;19.40;99.90;;;;;;5019912;28;20037;-70
2022/06/28 04:40:43;;;;;;;4.03;2.42;;;18.80;99.90;;;;;;5011303;28;20607;-70
2022/06/28 04:43:09;;;;;;;4.68;2.50;;;18.30;99.90;;;;;;5020461;28;20382;-70
2022/06/28 04:45:35;;;;;;;4.38;2.40;;;17.80;99.90;;;;;;5025528;28;20029;-70
2022/06/28 04:48:00;;;;;;;3.70;2.55;;;17.50;99.90;;;;;;5020240;28;20091;-70
2022/06/28 04:50:26;;;;;;;3.55;2.20;;;17.20;99.90;;;;;;5015857;28;20483;-71
2022/06/28 04:52:51;;;;;;;2.67;2.30;;;17.00;99.90;;;;;;5015075;28;20638;-70
2022/06/28 04:55:17;;;;;;;2.97;2.40;;;16.80;99.90;;;;;;5025801;28;20029;-70
2022/06/28 04:57:43;;;;;;;2.40;2.20;;;16.70;99.90;;;;;;5020398;28;20052;-70
2022/06/28 05:00:10;;;;;;;3.33;2.60;;;16.70;99.90;;;;;;5011787;28;20536;-71
2022/06/28 05:02:37;;;;;;;3.47;2.58;;;16.70;99.90;;;;;;5017484;28;20036;-70
2022/06/28 05:05:07;;;;;;;6.93;2.67;;;16.70;99.90;;;;;;5018756;28;20033;-70
2022/06/28 05:07:33;;;;;;;2.67;2.47;;;16.60;99.90;;;;;;5021375;28;20029;-70
2022/06/28 05:10:00;;;;;;;3.13;2.40;;;16.50;99.90;;;;;;5019466;28;20037;-70
2022/06/28 05:12:26;;;;;;;3.58;2.40;;;16.50;99.90;;;;;;5022307;28;20513;-70
2022/06/28 05:14:51;;;;;;;3.30;2.40;;;16.60;99.90;;;;;;5022114;28;20029;-70
2022/06/28 05:17:17;;;;;;;2.25;2.03;;;16.70;99.90;;;;;;5018672;28;20112;-71
2022/06/28 05:19:43;;;;;;;4.32;2.53;;;16.70;99.90;;;;;;5013884;28;20445;-71
2022/06/28 05:22:09;;;;;;;2.40;2.20;;;16.80;99.90;;;;;;5021019;28;20038;-72
2022/06/28 05:24:35;;;;;;;5.80;2.33;;;17.00;99.90;;;;;;5024483;28;20024;-72
2022/06/28 05:27:01;;;;;;;3.08;2.40;;;17.20;99.90;;;;;;5021054;28;20040;-72
2022/06/28 05:29:26;;;;;;;4.68;2.75;;;17.20;99.90;;;;;;5020099;28;20041;-71
2022/06/28 05:31:52;;;;;;;3.40;2.72;;;17.30;99.90;;;;;;5024795;28;20386;-72
2022/06/28 05:34:18;;;;;;;3.80;2.67;;;17.40;99.90;;;;;;5035213;28;20453;-72
2022/06/28 05:36:43;;;;;;;2.45;2.05;;;17.40;99.90;;;;;;5025948;28;20053;-72
2022/06/28 05:39:10;;;;;;;5.30;2.50;;;17.50;99.90;;;;;;5020831;28;20018;-72
2022/06/28 05:41:35;;;;;;;3.95;2.25;;;17.60;99.90;;;;;;5015061;28;20029;-72
2022/06/28 05:44:01;;;;;;;2.63;1.92;;;17.60;99.90;;;;;;5026390;28;20083;-72
2022/06/28 05:46:28;;;;;;;3.03;2.10;;;17.80;99.90;;;;;;5019216;28;21300;-72
2022/06/28 05:48:54;;;;;;;1.92;1.80;;;17.90;99.90;;;;;;5022484;28;20068;-72
2022/06/28 05:51:19;;;;;;;3.50;1.80;;;18.00;99.90;;;;;;5007646;28;20120;-73
2022/06/28 05:53:45;;;;;;;2.42;1.95;;;18.10;99.90;;;;;;5012705;28;20038;-73
2022/06/28 05:56:10;;;;;;;3.95;1.52;;;18.20;99.90;;;;;;5021396;28;21331;-72
2022/06/28 05:58:36;;;;;;;2.08;1.60;;;18.30;99.90;;;;;;5023662;28;20573;-73
2022/06/28 06:01:03;;;;;;;2.80;1.63;;;18.40;99.90;;;;;;5013629;28;20572;-73
2022/06/28 06:03:28;;;;;;;1.55;1.20;;;18.50;99.90;;;;;;5017051;28;20042;-73
2022/06/28 06:05:54;;;;;;;3.55;1.50;;;18.50;99.90;;;;;;5022117;28;20049;-73
2022/06/28 06:08:20;;;;;;;3.88;1.65;;;18.60;99.90;;;;;;5015217;28;20389;-73
2022/06/28 06:10:46;;;;;;;3.28;1.85;;;18.70;99.90;;;;;;5013791;28;20682;-73
2022/06/28 06:13:11;;;;;;;1.60;1.50;;;18.70;99.90;;;;;;5017465;28;20033;-73
2022/06/28 06:15:37;;;;;;;2.50;2.00;;;18.80;99.90;;;;;;5016572;28;23465;-72
2022/06/28 06:18:02;;;;;;;1.88;1.50;;;18.80;99.90;;;;;;5019210;28;20018;-72
2022/06/28 06:20:28;;;;;;;2.22;1.80;;;18.90;99.90;;;;;;5019604;28;20047;-72
2022/06/28 06:22:54;;;;;;;2.97;1.90;;;19.00;99.90;;;;;;5021549;28;20035;-72
2022/06/28 06:25:19;;;;;;;1.70;1.60;;;19.10;99.90;;;;;;5020793;28;20033;-71
2022/06/28 06:27:45;;;;;;;2.10;1.55;;;19.20;99.90;;;;;;5025830;28;20017;-71
2022/06/28 06:30:11;;;;;;;3.08;2.00;;;19.50;99.90;;;;;;5016985;28;20322;-71
2022/06/28 06:32:37;;;;;;;2.17;1.80;;;19.70;99.90;;;;;;5011581;28;20032;-71
2022/06/28 06:35:02;;;;;;;2.35;1.58;;;19.90;99.90;;;;;;5022146;28;20041;-71
2022/06/28 06:37:28;;;;;;;3.30;1.52;;;20.00;99.90;;;;;;5014249;28;20056;-71
2022/06/28 06:39:54;;;;;;;2.53;1.77;;;20.20;99.90;;;;;;5007483;28;20112;-72
2022/06/28 06:42:19;;;;;;;2.03;1.58;;;20.30;99.90;;;;;;5008806;28;20049;-71
2022/06/28 06:44:45;;;;;;;1.75;1.60;;;20.40;99.90;;;;;;5011425;28;20068;-72
2022/06/28 06:47:10;;;;;;;1.92;1.80;;;20.60;99.90;;;;;;5020313;28;20036;-72
2022/06/28 06:49:36;;;;;;;3.33;1.70;;;20.70;99.90;;;;;;5021368;28;20048;-72
2022/06/28 06:52:02;;;;;;;2.38;1.90;;;20.70;99.90;;;;;;5010740;28;20033;-72
2022/06/28 06:54:28;;;;;;;4.75;2.00;;;20.90;99.90;;;;;;5011676;28;20037;-72
2022/06/28 06:56:54;;;;;;;2.38;1.70;;;21.00;99.90;;;;;;5010938;28;20192;-72
2022/06/28 06:59:19;;;;;;;1.98;1.65;;;21.10;99.90;;;;;;5021825;28;20597;-72
2022/06/28 07:01:45;;;;;;;2.40;2.13;;;21.20;99.90;;;;;;5027384;28;20112;-72
2022/06/28 07:04:11;;;;;;;4.63;2.10;;;21.30;99.60;;;;;;5020636;28;20434;-72
2022/06/28 07:06:37;;;;;;;3.47;2.00;;;21.40;99.20;;;;;;5013292;28;20026;-72
2022/06/28 07:09:03;;;;;;;5.40;2.20;;;21.40;99.10;;;;;;5015957;28;20088;-72
2022/06/28 07:11:29;;;;;;;3.53;2.00;;;21.50;98.40;;;;;;5017253;28;20033;-72
2022/06/28 07:13:55;;;;;;;2.58;2.00;;;21.50;97.90;;;;;;5018504;28;20025;-72
2022/06/28 07:16:20;;;;;;;4.65;2.15;;;21.50;97.70;;;;;;5021525;28;20033;-72
2022/06/28 07:18:46;;;;;;;2.58;1.60;;;21.50;97.80;;;;;;5016691;28;20049;-72
2022/06/28 07:21:12;;;;;;;3.25;2.00;;;21.70;98.20;;;;;;5020737;28;20034;-72
2022/06/28 07:23:37;;;;;;;2.28;1.60;;;21.90;97.30;;;;;;5020138;28;20022;-72
2022/06/28 07:26:04;;;;;;;2.50;1.83;;;22.10;96.70;;;;;;5018245;28;20033;-72
2022/06/28 07:28:29;;;;;;;4.07;2.03;;;22.20;95.70;;;;;;5021620;28;20057;-72
2022/06/28 07:30:55;;;;;;;2.70;1.75;;;22.40;94.70;;;;;;5016790;28;20064;-71
2022/06/28 07:33:21;;;;;;;3.85;1.73;;;22.20;94.40;;;;;;5012352;28;20572;-72
2022/06/28 07:35:46;;;;;;;4.82;1.65;;;22.20;94.40;;;;;;5018308;28;20060;-72
2022/06/28 07:38:13;;;;;;;2.30;1.60;;;22.30;95.10;;;;;;5017862;28;20402;-72
2022/06/28 07:40:39;;;;;;;2.35;1.20;;;22.50;94.20;;;;;;5016271;28;20548;-72
2022/06/28 07:43:05;;;;;;;4.30;1.30;;;22.70;92.60;;;;;;5020337;28;20029;-72
2022/06/28 07:45:30;;;;;;;3.33;1.10;;;22.90;92.30;;;;;;5012527;28;20033;-71
2022/06/28 07:47:56;;;;;;;5.57;1.73;;;23.10;91.80;;;;;;5022304;28;20670;-72
2022/06/28 07:53:07;;;;;;;3.70;1.02;;;23.40;86.10;;;;;;5021698;28;20049;-72
2022/06/28 07:55:33;;;;;;;2.35;1.08;;;23.60;87.60;;;;;;5017033;28;20048;-72
2022/06/28 07:58:00;;;;;;;4.25;1.20;;;23.70;86.50;;;;;;5017843;28;20499;-72
2022/06/28 08:00:26;;;;;;;3.22;0.98;;;23.80;84.40;;;;;;5017423;28;20355;-72
2022/06/28 08:02:52;;;;;;;2.42;0.80;;;23.90;84.30;;;;;;5020618;28;20037;-72
2022/06/28 08:05:18;;;;;;;3.83;1.20;;;24.10;83.90;;;;;;5018543;28;20021;-72
2022/06/28 08:07:44;;;;;;;3.70;1.10;;;24.30;81.00;;;;;;5017624;28;20063;-72
2022/06/28 08:10:10;;;;;;;4.35;1.30;;;24.30;78.70;;;;;;5019541;28;20151;-72
2022/06/28 08:12:36;;;;;;;2.97;0.90;;;24.20;78.30;;;;;;5016365;28;20368;-72
2022/06/28 08:15:04;;;;;;;3.00;0.93;;;24.30;80.50;;;;;;5017280;28;20030;-72
2022/06/28 08:17:30;;;;;;;2.25;1.00;;;24.50;80.10;;;;;;5012311;28;20628;-73
2022/06/28 08:19:56;;;;;;;2.97;0.80;;;24.70;78.50;;;;;;5016538;28;20305;-71
2022/06/28 08:22:21;;;;;;;2.00;0.85;;;24.90;76.60;;;;;;5012690;28;20076;-71
2022/06/28 08:24:47;;;;;;;2.75;0.90;;;25.10;74.10;;;;;;5019037;28;20325;-71
2022/06/28 08:27:13;;;;;;;3.92;0.98;;;24.90;70.50;;;;;;5017226;28;20029;-71
2022/06/28 08:29:42;;;;;;;1.73;0.75;;;24.80;71.40;;;;;;5020596;28;20034;-71
2022/06/28 08:32:09;;;;;;;2.20;0.90;;;24.90;72.40;;;;;;5016240;28;20296;-71
2022/06/28 08:34:35;;;;;;;4.57;0.85;;;24.90;71.40;;;;;;5025285;28;20088;-71
2022/06/28 08:37:00;;;;;;;1.95;0.75;;;25.00;70.10;;;;;;5012753;28;20460;-71
2022/06/28 08:39:26;;;;;;;4.45;0.70;;;25.10;70.50;;;;;;5017356;28;20418;-70
2022/06/28 08:41:53;;;;;;;2.22;0.77;;;25.20;69.90;;;;;;5017852;28;20040;-71
2022/06/28 08:44:19;;;;;;;2.25;1.00;;;25.30;70.30;;;;;;5021500;28;20057;-71
2022/06/28 08:46:49;;;;;;;1.42;0.70;;;25.30;69.20;;;;;;5024342;28;20068;-71
2022/06/28 08:49:41;;;;;;;1.35;0.88;;;25.40;67.90;;;;;;5023196;28;20052;-71
2022/06/28 08:52:08;;;;;;;3.42;0.80;;;25.40;67.20;;;;;;5021006;28;20030;-71
2022/06/28 08:54:35;;;;;;;5.25;0.90;;;25.50;65.20;;;;;;5017003;28;20025;-70
2022/06/28 08:57:01;;;;;;;1.45;0.60;;;25.50;65.30;;;;;;5019681;28;20780;-71
2022/06/28 08:59:27;;;;;;;3.17;0.88;;;25.40;63.70;;;;;;5018060;28;20116;-71
2022/06/28 09:01:53;;;;;;;2.42;0.80;;;25.50;65.10;;;;;;5019949;28;20140;-71
2022/06/28 09:04:18;;;;;;;2.55;0.68;;;25.40;64.20;;;;;;5017957;28;20048;-73
2022/06/28 09:06:44;;;;;;;4.63;1.17;;;25.40;65.60;;;;;;5013535;28;20564;-73
2022/06/28 09:09:10;;;;;;;1.15;0.60;;;25.40;63.00;;;;;;5026962;28;20036;-72
2022/06/28 09:11:37;;;;;;;1.70;0.60;;;25.40;60.90;;;;;;5026469;28;20030;-72
2022/06/28 09:14:18;;;;;;;2.72;0.60;;;25.50;59.70;;;;;;5022188;28;20095;-72
2022/06/28 09:16:44;;;;;;;1.73;0.73;;;25.60;62.50;;;;;;5029261;28;20556;-73
2022/06/28 09:19:11;;;;;;;1.40;0.50;;;25.60;59.70;;;;;;5018521;28;20084;-72
2022/06/28 09:21:45;;;;;;;1.35;0.50;;;25.70;60.60;;;;;;5022826;28;20049;-72
2022/06/28 09:24:25;;;;;;;3.40;0.60;;;25.80;61.80;;;;;;5020870;28;20040;-72
2022/06/28 09:26:59;;;;;;;1.05;0.50;;;26.00;59.80;;;;;;5024485;28;20106;-73
2022/06/28 09:29:25;;;;;;;2.15;0.80;;;25.90;57.60;;;;;;5026903;28;20095;-72
2022/06/28 09:31:51;;;;;;;2.30;0.50;;;26.00;58.00;;;;;;5016847;28;20061;-72
2022/06/28 09:34:17;;;;;;;1.80;0.50;;;25.90;58.50;;;;;;5023481;28;20056;-73
2022/06/28 09:36:57;;;;;;;2.08;0.63;;;25.70;58.20;;;;;;5023268;28;20041;-73
2022/06/28 09:39:28;;;;;;;3.05;0.70;;;25.70;61.60;;;;;;5027675;28;20026;-73
2022/06/28 09:41:55;;;;;;;2.33;0.90;;;25.70;64.10;;;;;;5026682;28;20035;-73
2022/06/28 09:44:26;;;;;;;2.10;0.77;;;25.70;63.00;;;;;;5024350;28;20033;-73
2022/06/28 09:46:57;;;;;;;2.20;0.70;;;25.60;60.90;;;;;;5025946;28;20029;-73
2022/06/28 09:49:28;;;;;;;2.95;0.70;;;25.70;60.40;;;;;;5015148;28;20497;-73
2022/06/28 09:51:56;;;;;;;2.60;0.73;;;25.50;60.80;;;;;;5023751;28;20139;-73
2022/06/28 09:54:25;;;;;;;3.17;0.80;;;25.50;61.00;;;;;;5015599;28;20029;-74
2022/06/28 09:56:54;;;;;;;1.35;0.70;;;25.70;60.70;;;;;;5021077;28;20046;-73
2022/06/28 09:59:21;;;;;;;2.35;0.90;;;25.70;61.20;;;;;;5018394;28;20064;-72
2022/06/28 10:01:48;;;;;;;4.63;0.85;;;25.70;61.80;;;;;;5020377;28;20025;-71
2022/06/28 10:04:14;;;;;;;2.05;0.70;;;25.50;63.50;;;;;;5019225;28;20061;-71
2022/06/28 10:06:40;;;;;;;1.70;0.70;;;25.20;61.40;;;;;;5019347;28;20060;-70
2022/06/28 10:09:06;;;;;;;4.38;0.70;;;25.10;62.30;;;;;;5020405;28;20608;-70
2022/06/28 10:15:01;;;;;;;2.38;0.80;;;25.20;63.30;;;;;;5014659;28;20087;-71
2022/06/28 10:17:39;;;;;;;3.45;0.80;;;25.40;61.80;;;;;;5016515;28;20444;-71
2022/06/28 10:20:07;;;;;;;1.85;0.77;;;25.20;61.60;;;;;;5008110;28;20049;-71
2022/06/28 10:22:33;;;;;;;3.42;0.73;;;25.20;62.00;;;;;;5021898;28;20111;-71
2022/06/28 10:25:01;;;;;;;1.15;0.60;;;25.20;61.00;;;;;;5022720;28;20067;-71
2022/06/28 10:27:28;;;;;;;2.58;0.80;;;25.30;61.50;;;;;;5018191;28;20038;-71
2022/06/28 10:30:18;;;;;;;3.40;0.70;;;25.30;60.10;;;;;;5017440;28;20030;-71
2022/06/28 10:32:47;;;;;;;2.50;0.68;;;25.40;60.00;;;;;;5014702;28;20036;-71
2022/06/28 10:35:28;;;;;;;3.05;0.73;;;25.50;60.10;;;;;;5014156;28;20045;-71
2022/06/28 10:38:23;;;;;;;1.08;0.60;;;25.60;58.50;;;;;;5013287;28;20038;-71
2022/06/28 10:40:49;;;;;;;2.03;0.70;;;25.60;59.00;;;;;;5012973;28;20038;-71
2022/06/28 10:43:27;;;;;;;1.55;0.70;;;25.40;61.50;;;;;;5023456;28;20044;-71
2022/06/28 10:46:07;;;;;;;4.20;0.70;;;25.30;60.40;;;;;;5020692;28;20108;-71
2022/06/28 10:48:48;;;;;;;1.63;0.60;;;24.90;59.00;;;;;;5022659;28;20124;-71
2022/06/28 10:51:15;;;;;;;1.35;0.65;;;24.60;59.50;;;;;;5013891;28;20096;-71
2022/06/28 10:54:01;;;;;;;1.98;0.60;;;24.50;59.80;;;;;;5007244;28;20037;-71
2022/06/28 10:56:28;;;;;;;1.75;0.70;;;24.20;61.00;;;;;;5015973;28;20026;-71
2022/06/28 10:59:04;;;;;;;2.90;0.73;;;24.10;60.90;;;;;;5022135;28;20048;-71
2022/06/28 11:01:39;;;;;;;1.50;0.50;;;24.20;61.20;;;;;;5020766;28;20035;-71
2022/06/28 11:04:09;;;;;;;1.58;0.55;;;24.60;61.10;;;;;;5019021;28;20030;-71
2022/06/28 11:06:47;;;;;;;2.35;0.70;;;24.90;61.00;;;;;;5016943;28;20418;-72
2022/06/28 11:09:28;;;;;;;2.20;0.60;;;25.30;60.40;;;;;;5025186;28;20091;-71
2022/06/28 11:12:13;;;;;;;2.53;0.70;;;25.50;59.70;;;;;;5015216;28;20528;-71
2022/06/28 11:14:45;;;;;;;2.72;0.50;;;25.40;59.20;;;;;;5021965;28;20033;-71
2022/06/28 11:17:20;;;;;;;3.58;0.50;;;25.20;60.50;;;;;;5016367;28;20675;-72
2022/06/28 11:19:53;;;;;;;2.40;0.50;;;25.30;59.70;;;;;;5007446;28;20034;-71
2022/06/28 11:22:37;;;;;;;0.85;0.70;;;25.30;61.70;;;;;;5019152;28;20057;-71
2022/06/28 11:25:05;;;;;;;2.22;0.70;;;25.20;61.20;;;;;;5020907;28;20025;-70
2022/06/28 11:27:32;;;;;;;3.50;0.68;;;24.90;60.40;;;;;;5031694;28;20029;-71
2022/06/28 11:31:02;;;;;;;1.90;0.70;;;24.90;60.70;;;;;;5025488;28;20040;-71
2022/06/28 11:33:31;;;;;;;2.58;0.80;;;24.80;57.90;;;;;;5019527;28;20136;-71
2022/06/28 11:36:00;;;;;;;1.77;0.70;;;24.90;57.90;;;;;;5021409;28;20125;-71
2022/06/28 11:38:25;;;;;;;1.40;0.57;;;25.10;57.70;;;;;;5010860;28;20498;-71
2022/06/28 11:40:54;;;;;;;1.42;0.70;;;25.40;58.40;;;;;;5017623;28;20493;-71
2022/06/28 11:43:27;;;;;;;1.23;0.80;;;25.70;58.10;;;;;;5019576;28;20108;-72
2022/06/28 11:45:53;;;;;;;;;;;26.10;57.60;;;;;;5020577;28;20108;-71
2022/06/28 11:48:28;;;;;;;3.35;0.80;;;26.30;58.40;;;;;;5018240;28;19909;-71
2022/06/28 11:50:56;;;;;;;2.90;0.88;;;26.10;56.90;;;;;;5014969;28;20033;-71
2022/06/28 11:53:23;;;;;;;2.22;0.90;;;25.90;58.50;;;;;;5020344;28;20248;-71
2022/06/28 11:55:52;;;;;;;0.93;0.65;;;25.60;58.80;;;;;;5017555;28;20037;-71
2022/06/28 11:58:24;;;;;;;1.52;0.70;;;25.70;57.50;;;;;;5016324;28;20052;-71
2022/06/28 12:01:11;;;;;;;2.83;0.90;;;25.70;56.30;;;;;;5014406;28;20052;-71
2022/06/28 12:03:43;;;;;;;3.42;0.93;;;26.00;57.50;;;;;;5013572;28;20039;-71
2022/06/28 12:06:22;;;;;;;7.50;1.35;;;26.00;58.00;;;;;;5023139;28;20033;-72
2022/06/28 12:08:51;;;;;;;1.90;0.77;;;26.00;57.50;;;;;;5021755;28;20025;-72
2022/06/28 12:11:29;;;;;;;2.55;0.80;;;26.00;55.90;;;;;;5019391;28;20087;-72
2022/06/28 12:14:15;;;;;;;2.30;0.60;;;26.00;55.20;;;;;;5016260;28;20524;-71
2022/06/28 12:16:55;;;;;;;5.15;0.90;;;26.20;55.70;;;;;;5017269;28;20029;-72
2022/06/28 12:19:25;;;;;;;2.70;0.70;;;26.30;55.80;;;;;;5016892;28;20037;-71
2022/06/28 12:22:06;;;;;;;3.80;0.98;;;26.40;55.80;;;;;;5016505;28;20083;-72
2022/06/28 12:24:43;;;;;;;1.63;0.80;;;26.60;55.30;;;;;;5019398;28;20529;-72
2022/06/28 12:27:11;;;;;;;0.90;0.70;;;26.60;56.00;;;;;;5021427;28;20144;-71
2022/06/28 12:29:37;;;;;;;1.45;0.70;;;26.50;55.20;;;;;;5018415;28;20223;-72
2022/06/28 12:32:04;;;;;;;1.73;0.60;;;26.50;55.30;;;;;;5028591;28;20390;-71
2022/06/28 12:34:29;;;;;;;1.90;0.60;;;26.40;55.20;;;;;;5015269;28;20084;-71
2022/06/28 12:36:55;;;;;;;1.48;0.50;;;26.30;55.30;;;;;;5026339;28;20073;-71
2022/06/28 12:39:21;;;;;;;2.45;0.68;;;26.50;54.50;;;;;;5022036;28;20017;-71
2022/06/28 12:41:48;;;;;;;1.23;0.50;;;26.50;53.40;;;;;;5020947;28;20191;-71
2022/06/28 12:44:14;;;;;;;1.52;0.55;;;26.50;53.40;;;;;;5021787;28;20108;-71
2022/06/28 12:46:41;;;;;;;1.50;0.80;;;26.70;53.10;;;;;;5026732;28;20033;-71
2022/06/28 12:49:07;;;;;;;1.50;0.60;;;26.80;52.50;;;;;;5028369;28;20501;-71
2022/06/28 12:51:32;;;;;;;2.70;0.60;;;27.00;51.00;;;;;;5028048;28;20037;-71
2022/06/28 12:53:58;;;;;;;1.17;0.60;;;27.20;52.00;;;;;;5018831;28;20505;-71
2022/06/28 12:56:23;;;;;;;4.00;0.73;;;27.30;51.70;;;;;;5021507;28;20486;-71
2022/06/28 12:58:49;;;;;;;2.80;0.52;;;27.30;51.20;;;;;;5018355;28;20040;-71
2022/06/28 13:01:15;;;;;;;0.88;0.55;;;27.20;51.90;;;;;;5014376;28;20541;-71
2022/06/28 13:03:41;;;;;;;2.67;0.57;;;27.10;52.80;;;;;;5022752;28;20398;-71